sensor_id;sensor_type;location;lat;lon;timestamp;pressure;altitude;pressure_sealevel;temperature;humidity
36600;BME280;35385;55.668;37.508;2023-09-12T00:00:28;99679.03;;;12.22;100.00
36600;BME280;35385;55.668;37.508;2023-09-12T00:01:28;99639.94;;;12.00;100.00
36600;BME280;35385;55.668;37.508;2023-09-12T00:02:32;99681.75;;;12.32;100.00
36600;BME280;35385;55.668;37.508;2023-09-12T00:03:34;99600.63;;;11.70;100.00
36600;BME280;35385;55.668;37.508;2023-09-12T00:04:34;99684.13;;;12.25;100.00
36600;BME280;35385;55.668;37.508;2023-09-12T00:05:35;99695.81;;;12.24;100.00
36600;BME280;35385;55.668;37.508;2023-09-12T00:06:36;99686.81;;;12.25;100.00
36600;BME280;35385;55.668;37.508;2023-09-12T00:07:38;99684.78;;;12.18;100.00
36600;BME280;35385;55.668;37.508;2023-09-12T00:08:39;99643.81;;;11.87;100.00
36600;BME280;35385;55.668;37.508;2023-09-12T00:09:39;99685.06;;;12.15;100.00
36600;BME280;35385;55.668;37.508;2023-09-12T00:10:40;99669.50;;;11.99;100.00
36600;BME280;35385;55.668;37.508;2023-09-12T00:11:41;99686.75;;;12.06;100.00
36600;BME280;35385;55.668;37.508;2023-09-12T00:12:41;99695.50;;;12.08;100.00
36600;BME280;35385;55.668;37.508;2023-09-12T00:13:42;99688.16;;;12.10;100.00
36600;BME280;35385;55.668;37.508;2023-09-12T00:14:42;99681.66;;;12.13;100.00
36600;BME280;35385;55.668;37.508;2023-09-12T00:15:43;99684.22;;;12.14;100.00
36600;BME280;35385;55.668;37.508;2023-09-12T00:16:43;99662.47;;;11.98;100.00
36600;BME280;35385;55.668;37.508;2023-09-12T00:17:44;99687.84;;;12.03;100.00
36600;BME280;35385;55.668;37.508;2023-09-12T00:18:45;99676.84;;;11.97;100.00
36600;BME280;35385;55.668;37.508;2023-09-12T00:19:45;99694.06;;;12.04;100.00
36600;BME280;35385;55.668;37.508;2023-09-12T00:20:46;99642.94;;;11.77;100.00
36600;BME280;35385;55.668;37.508;2023-09-12T00:21:46;99688.44;;;12.07;100.00
36600;BME280;35385;55.668;37.508;2023-09-12T00:22:47;99628.53;;;11.68;100.00
36600;BME280;35385;55.668;37.508;2023-09-12T00:23:47;99687.00;;;12.03;100.00
36600;BME280;35385;55.668;37.508;2023-09-12T00:24:48;99685.31;;;12.02;100.00
36600;BME280;35385;55.668;37.508;2023-09-12T00:25:50;99681.19;;;11.98;100.00
36600;BME280;35385;55.668;37.508;2023-09-12T00:26:52;99687.84;;;12.03;100.00
36600;BME280;35385;55.668;37.508;2023-09-12T00:27:52;99675.16;;;11.96;100.00
36600;BME280;35385;55.668;37.508;2023-09-12T00:28:53;99698.09;;;11.98;100.00
36600;BME280;35385;55.668;37.508;2023-09-12T00:29:53;99693.34;;;12.02;100.00
36600;BME280;35385;55.668;37.508;2023-09-12T00:30:54;99690.66;;;12.02;100.00
36600;BME280;35385;55.668;37.508;2023-09-12T00:31:54;99699.41;;;12.04;100.00
36600;BME280;35385;55.668;37.508;2023-09-12T00:32:55;99704.91;;;12.02;100.00
36600;BME280;35385;55.668;37.508;2023-09-12T00:33:55;99703.47;;;11.98;100.00
36600;BME280;35385;55.668;37.508;2023-09-12T00:34:56;99702.44;;;11.90;100.00
36600;BME280;35385;55.668;37.508;2023-09-12T00:35:56;99704.97;;;11.82;100.00
36600;BME280;35385;55.668;37.508;2023-09-12T00:36:57;99708.06;;;11.87;100.00
36600;BME280;35385;55.668;37.508;2023-09-12T00:37:58;99697.06;;;11.80;100.00
36600;BME280;35385;55.668;37.508;2023-09-12T00:38:58;99709.34;;;11.83;100.00
36600;BME280;35385;55.668;37.508;2023-09-12T00:39:59;99708.06;;;11.87;100.00
36600;BME280;35385;55.668;37.508;2023-09-12T00:41:00;99659.19;;;11.64;100.00
36600;BME280;35385;55.668;37.508;2023-09-12T00:42:00;99681.50;;;11.74;100.00
36600;BME280;35385;55.668;37.508;2023-09-12T00:43:01;99653.53;;;11.57;100.00
36600;BME280;35385;55.668;37.508;2023-09-12T00:44:01;99652.13;;;11.53;100.00
36600;BME280;35385;55.668;37.508;2023-09-12T00:45:02;99702.72;;;11.87;100.00
36600;BME280;35385;55.668;37.508;2023-09-12T00:46:03;99707.94;;;11.88;100.00
36600;BME280;35385;55.668;37.508;2023-09-12T00:47:04;99657.19;;;11.56;100.00
36600;BME280;35385;55.668;37.508;2023-09-12T00:48:05;99710.59;;;11.88;100.00
36600;BME280;35385;55.668;37.508;2023-09-12T00:49:07;99718.63;;;11.88;100.00
36600;BME280;35385;55.668;37.508;2023-09-12T00:50:09;99720.66;;;11.96;100.00
36600;BME280;35385;55.668;37.508;2023-09-12T00:51:10;99710.94;;;11.95;100.00
36600;BME280;35385;55.668;37.508;2023-09-12T00:52:11;99667.09;;;11.65;100.00
36600;BME280;35385;55.668;37.508;2023-09-12T00:53:13;99716.00;;;11.98;100.00
36600;BME280;35385;55.668;37.508;2023-09-12T00:54:14;99699.78;;;11.90;100.00
36600;BME280;35385;55.668;37.508;2023-09-12T00:55:16;99716.28;;;11.95;100.00
36600;BME280;35385;55.668;37.508;2023-09-12T00:56:17;99724.19;;;11.96;100.00
36600;BME280;35385;55.668;37.508;2023-09-12T00:57:18;99718.13;;;11.94;100.00
36600;BME280;35385;55.668;37.508;2023-09-12T00:58:19;99719.34;;;11.90;100.00
36600;BME280;35385;55.668;37.508;2023-09-12T00:59:20;99722.72;;;11.83;100.00
36600;BME280;35385;55.668;37.508;2023-09-12T01:00:22;99713.13;;;11.80;100.00
36600;BME280;35385;55.668;37.508;2023-09-12T01:01:22;99708.63;;;11.81;100.00
36600;BME280;35385;55.668;37.508;2023-09-12T01:02:24;99718.75;;;11.87;100.00
36600;BME280;35385;55.668;37.508;2023-09-12T01:03:25;99723.13;;;11.88;100.00
36600;BME280;35385;55.668;37.508;2023-09-12T01:04:28;99723.84;;;11.90;100.00
36600;BME280;35385;55.668;37.508;2023-09-12T01:05:29;99721.91;;;11.92;100.00
36600;BME280;35385;55.668;37.508;2023-09-12T01:06:31;99674.88;;;11.68;100.00
36600;BME280;35385;55.668;37.508;2023-09-12T01:07:34;99706.09;;;11.89;100.00
36600;BME280;35385;55.668;37.508;2023-09-12T01:08:36;99709.25;;;11.94;100.00
36600;BME280;35385;55.668;37.508;2023-09-12T01:09:40;99717.41;;;11.92;100.00
36600;BME280;35385;55.668;37.508;2023-09-12T01:10:41;99659.19;;;11.64;100.00
36600;BME280;35385;55.668;37.508;2023-09-12T01:11:46;99730.22;;;11.98;100.00
36600;BME280;35385;55.668;37.508;2023-09-12T01:12:46;99717.81;;;11.97;100.00
36600;BME280;35385;55.668;37.508;2023-09-12T01:13:47;99723.19;;;11.97;100.00
36600;BME280;35385;55.668;37.508;2023-09-12T01:14:48;99723.75;;;12.01;100.00
36600;BME280;35385;55.668;37.508;2023-09-12T01:15:49;99722.06;;;12.00;100.00
36600;BME280;35385;55.668;37.508;2023-09-12T01:16:50;99671.19;;;11.69;100.00
36600;BME280;35385;55.668;37.508;2023-09-12T01:17:51;99726.00;;;11.96;100.00
36600;BME280;35385;55.668;37.508;2023-09-12T01:18:52;99704.41;;;11.88;100.00
36600;BME280;35385;55.668;37.508;2023-09-12T01:19:52;99727.84;;;11.95;100.00
36600;BME280;35385;55.668;37.508;2023-09-12T01:27:47;99734.56;;;11.90;100.00
36600;BME280;35385;55.668;37.508;2023-09-12T01:28:50;99727.78;;;11.86;100.00
36600;BME280;35385;55.668;37.508;2023-09-12T01:29:56;99729.59;;;11.85;100.00
36600;BME280;35385;55.668;37.508;2023-09-12T01:30:58;99688.16;;;11.59;100.00
36600;BME280;35385;55.668;37.508;2023-09-12T01:31:58;99714.81;;;11.81;100.00
36600;BME280;35385;55.668;37.508;2023-09-12T01:33:00;99724.00;;;11.88;100.00
36600;BME280;35385;55.668;37.508;2023-09-12T01:34:11;99718.72;;;11.77;100.00
36600;BME280;35385;55.668;37.508;2023-09-12T01:35:12;99720.06;;;11.72;100.00
36600;BME280;35385;55.668;37.508;2023-09-12T01:36:13;99730.28;;;11.78;100.00
36600;BME280;35385;55.668;37.508;2023-09-12T01:37:14;99681.06;;;11.48;100.00
36600;BME280;35385;55.668;37.508;2023-09-12T01:38:15;99731.25;;;11.77;100.00
36600;BME280;35385;55.668;37.508;2023-09-12T01:39:15;99725.41;;;11.72;100.00
36600;BME280;35385;55.668;37.508;2023-09-12T01:40:16;99723.16;;;11.67;100.00
36600;BME280;35385;55.668;37.508;2023-09-12T01:41:18;99675.69;;;11.39;100.00
36600;BME280;35385;55.668;37.508;2023-09-12T01:42:21;99670.47;;;11.37;100.00
36600;BME280;35385;55.668;37.508;2023-09-12T01:43:24;99725.16;;;11.75;100.00
36600;BME280;35385;55.668;37.508;2023-09-12T01:44:27;99713.00;;;11.70;100.00
36600;BME280;35385;55.668;37.508;2023-09-12T01:45:28;99730.50;;;11.75;100.00
36600;BME280;35385;55.668;37.508;2023-09-12T01:46:29;99718.66;;;11.67;100.00
36600;BME280;35385;55.668;37.508;2023-09-12T01:47:33;99733.94;;;11.77;100.00
36600;BME280;35385;55.668;37.508;2023-09-12T01:48:35;99732.25;;;11.76;100.00
36600;BME280;35385;55.668;37.508;2023-09-12T01:49:39;99710.75;;;11.66;100.00
36600;BME280;35385;55.668;37.508;2023-09-12T01:50:41;99677.69;;;11.46;100.00
36600;BME280;35385;55.668;37.508;2023-09-12T01:51:42;99739.38;;;11.75;100.00
36600;BME280;35385;55.668;37.508;2023-09-12T01:52:43;99734.53;;;11.69;100.00
36600;BME280;35385;55.668;37.508;2023-09-12T01:53:45;99729.19;;;11.69;100.00
36600;BME280;35385;55.668;37.508;2023-09-12T01:54:46;99697.63;;;11.42;100.00
36600;BME280;35385;55.668;37.508;2023-09-12T01:55:47;99733.25;;;11.63;100.00
36600;BME280;35385;55.668;37.508;2023-09-12T01:56:48;99733.78;;;11.57;100.00
36600;BME280;35385;55.668;37.508;2023-09-12T01:57:49;99725.31;;;11.52;100.00
36600;BME280;35385;55.668;37.508;2023-09-12T01:58:50;99738.88;;;11.60;100.00
36600;BME280;35385;55.668;37.508;2023-09-12T01:59:51;99752.38;;;11.59;100.00
36600;BME280;35385;55.668;37.508;2023-09-12T02:00:51;99718.66;;;11.47;100.00
36600;BME280;35385;55.668;37.508;2023-09-12T02:01:52;99746.44;;;11.55;100.00
36600;BME280;35385;55.668;37.508;2023-09-12T02:02:53;99742.22;;;11.53;100.00
36600;BME280;35385;55.668;37.508;2023-09-12T02:03:53;99739.06;;;11.48;100.00
36600;BME280;35385;55.668;37.508;2023-09-12T02:06:04;99739.84;;;11.59;100.00
36600;BME280;35385;55.668;37.508;2023-09-12T02:07:04;99742.41;;;11.61;100.00
36600;BME280;35385;55.668;37.508;2023-09-12T02:08:05;99743.31;;;11.50;100.00
36600;BME280;35385;55.668;37.508;2023-09-12T02:09:06;99738.22;;;11.47;100.00
36600;BME280;35385;55.668;37.508;2023-09-12T02:10:06;99738.28;;;11.36;100.00
36600;BME280;35385;55.668;37.508;2023-09-12T02:11:07;99731.84;;;11.39;100.00
36600;BME280;35385;55.668;37.508;2023-09-12T02:12:08;99750.88;;;11.45;100.00
36600;BME280;35385;55.668;37.508;2023-09-12T02:13:09;99737.88;;;11.41;100.00
36600;BME280;35385;55.668;37.508;2023-09-12T02:14:09;99748.78;;;11.49;100.00
36600;BME280;35385;55.668;37.508;2023-09-12T02:15:10;99752.19;;;11.51;100.00
36600;BME280;35385;55.668;37.508;2023-09-12T02:16:12;99749.94;;;11.56;100.00
36600;BME280;35385;55.668;37.508;2023-09-12T02:17:13;99758.09;;;11.54;100.00
36600;BME280;35385;55.668;37.508;2023-09-12T02:18:14;99754.31;;;11.57;100.00
36600;BME280;35385;55.668;37.508;2023-09-12T02:19:14;99747.41;;;11.54;100.00
36600;BME280;35385;55.668;37.508;2023-09-12T02:20:15;99715.72;;;11.29;100.00
36600;BME280;35385;55.668;37.508;2023-09-12T02:21:16;99756.56;;;11.52;100.00
36600;BME280;35385;55.668;37.508;2023-09-12T02:22:16;99716.44;;;11.31;100.00
36600;BME280;35385;55.668;37.508;2023-09-12T02:23:17;99759.97;;;11.54;100.00
36600;BME280;35385;55.668;37.508;2023-09-12T02:24:18;99761.06;;;11.51;100.00
36600;BME280;35385;55.668;37.508;2023-09-12T02:25:21;99761.06;;;11.51;100.00
36600;BME280;35385;55.668;37.508;2023-09-12T02:26:22;99764.97;;;11.47;100.00
36600;BME280;35385;55.668;37.508;2023-09-12T02:27:23;99764.00;;;11.48;100.00
36600;BME280;35385;55.668;37.508;2023-09-12T02:28:24;99763.03;;;11.49;100.00
36600;BME280;35385;55.668;37.508;2023-09-12T02:29:25;99757.66;;;11.49;100.00
36600;BME280;35385;55.668;37.508;2023-09-12T02:30:25;99676.00;;;11.04;100.00
36600;BME280;35385;55.668;37.508;2023-09-12T02:31:26;99752.69;;;11.45;100.00
36600;BME280;35385;55.668;37.508;2023-09-12T02:32:26;99754.28;;;11.47;100.00
36600;BME280;35385;55.668;37.508;2023-09-12T02:33:27;99731.03;;;11.27;100.00
36600;BME280;35385;55.668;37.508;2023-09-12T02:34:28;99764.25;;;11.45;100.00
36600;BME280;35385;55.668;37.508;2023-09-12T02:35:28;99738.16;;;11.38;100.00
36600;BME280;35385;55.668;37.508;2023-09-12T02:36:29;99757.06;;;11.46;100.00
36600;BME280;35385;55.668;37.508;2023-09-12T02:37:30;99715.78;;;11.18;100.00
36600;BME280;35385;55.668;37.508;2023-09-12T02:38:30;99759.44;;;11.39;100.00
36600;BME280;35385;55.668;37.508;2023-09-12T02:39:31;99748.53;;;11.31;100.00
36600;BME280;35385;55.668;37.508;2023-09-12T02:40:31;99702.72;;;11.04;100.00
36600;BME280;35385;55.668;37.508;2023-09-12T02:41:32;99765.75;;;11.38;100.00
36600;BME280;35385;55.668;37.508;2023-09-12T02:42:32;99722.09;;;11.17;100.00
36600;BME280;35385;55.668;37.508;2023-09-12T02:43:33;99760.66;;;11.35;100.00
36600;BME280;35385;55.668;37.508;2023-09-12T02:44:34;99762.38;;;11.36;100.00
36600;BME280;35385;55.668;37.508;2023-09-12T02:45:34;99766.13;;;11.33;100.00
36600;BME280;35385;55.668;37.508;2023-09-12T02:46:36;99763.34;;;11.35;100.00
36600;BME280;35385;55.668;37.508;2023-09-12T02:47:37;99769.53;;;11.36;100.00
36600;BME280;35385;55.668;37.508;2023-09-12T02:48:37;99735.53;;;11.06;100.00
36600;BME280;35385;55.668;37.508;2023-09-12T02:49:38;99753.19;;;11.18;100.00
36600;BME280;35385;55.668;37.508;2023-09-12T02:50:38;99763.03;;;11.17;100.00
36600;BME280;35385;55.668;37.508;2023-09-12T02:51:39;99770.94;;;11.19;100.00
36600;BME280;35385;55.668;37.508;2023-09-12T02:52:40;99774.09;;;11.24;100.00
36600;BME280;35385;55.668;37.508;2023-09-12T02:53:40;99762.25;;;11.26;100.00
36600;BME280;35385;55.668;37.508;2023-09-12T02:54:41;99761.69;;;11.23;100.00
36600;BME280;35385;55.668;37.508;2023-09-12T02:55:42;99772.53;;;11.21;100.00
36600;BME280;35385;55.668;37.508;2023-09-12T02:56:42;99747.25;;;11.14;100.00
36600;BME280;35385;55.668;37.508;2023-09-12T02:57:43;99764.81;;;11.28;100.00
36600;BME280;35385;55.668;37.508;2023-09-12T02:58:46;99768.47;;;11.27;100.00
36600;BME280;35385;55.668;37.508;2023-09-12T02:59:47;99745.00;;;11.10;100.00
36600;BME280;35385;55.668;37.508;2023-09-12T03:00:48;99765.09;;;11.25;100.00
36600;BME280;35385;55.668;37.508;2023-09-12T03:01:50;99753.69;;;11.12;100.00
36600;BME280;35385;55.668;37.508;2023-09-12T03:02:51;99774.22;;;11.22;100.00
36600;BME280;35385;55.668;37.508;2023-09-12T03:03:51;99726.22;;;10.89;100.00
36600;BME280;35385;55.668;37.508;2023-09-12T03:04:52;99778.97;;;11.19;100.00
36600;BME280;35385;55.668;37.508;2023-09-12T03:06:00;99768.03;;;11.22;100.00
36600;BME280;35385;55.668;37.508;2023-09-12T03:07:00;99742.03;;;11.13;100.00
36600;BME280;35385;55.668;37.508;2023-09-12T03:08:01;99784.00;;;11.33;100.00
36600;BME280;35385;55.668;37.508;2023-09-12T03:09:04;99765.41;;;11.31;100.00
36600;BME280;35385;55.668;37.508;2023-09-12T03:10:05;99768.47;;;11.27;100.00
36600;BME280;35385;55.668;37.508;2023-09-12T03:11:06;99780.84;;;11.28;100.00
36600;BME280;35385;55.668;37.508;2023-09-12T03:12:07;99771.75;;;11.30;100.00
36600;BME280;35385;55.668;37.508;2023-09-12T03:13:07;99766.06;;;11.24;100.00
36600;BME280;35385;55.668;37.508;2023-09-12T03:14:08;99751.63;;;11.15;100.00
36600;BME280;35385;55.668;37.508;2023-09-12T03:15:09;99739.16;;;11.05;100.00
36600;BME280;35385;55.668;37.508;2023-09-12T03:16:14;99780.84;;;11.28;100.00
36600;BME280;35385;55.668;37.508;2023-09-12T03:17:14;99766.75;;;11.26;100.00
36600;BME280;35385;55.668;37.508;2023-09-12T03:18:15;99774.66;;;11.27;100.00
36600;BME280;35385;55.668;37.508;2023-09-12T03:19:16;99759.75;;;11.25;100.00
36600;BME280;35385;55.668;37.508;2023-09-12T03:20:16;99771.88;;;11.29;100.00
36600;BME280;35385;55.668;37.508;2023-09-12T03:21:17;99766.50;;;11.29;100.00
36600;BME280;35385;55.668;37.508;2023-09-12T03:22:17;99771.13;;;11.27;100.00
36600;BME280;35385;55.668;37.508;2023-09-12T03:23:21;99780.84;;;11.28;100.00
36600;BME280;35385;55.668;37.508;2023-09-12T03:24:22;99774.34;;;11.21;100.00
36600;BME280;35385;55.668;37.508;2023-09-12T03:25:25;99749.13;;;11.03;100.00
36600;BME280;35385;55.668;37.508;2023-09-12T03:26:25;99777.75;;;11.23;100.00
36600;BME280;35385;55.668;37.508;2023-09-12T03:27:26;99776.03;;;11.22;100.00
36600;BME280;35385;55.668;37.508;2023-09-12T03:28:27;99786.50;;;11.25;100.00
36600;BME280;35385;55.668;37.508;2023-09-12T03:29:28;99788.44;;;11.23;100.00
36600;BME280;35385;55.668;37.508;2023-09-12T03:30:28;99779.44;;;11.24;100.00
36600;BME280;35385;55.668;37.508;2023-09-12T03:31:29;99768.75;;;11.24;100.00
36600;BME280;35385;55.668;37.508;2023-09-12T03:32:30;99748.63;;;11.09;100.00
36600;BME280;35385;55.668;37.508;2023-09-12T03:33:30;99715.88;;;10.95;100.00
36600;BME280;35385;55.668;37.508;2023-09-12T03:34:31;99780.59;;;11.31;100.00
36600;BME280;35385;55.668;37.508;2023-09-12T03:35:32;99774.78;;;11.26;100.00
36600;BME280;35385;55.668;37.508;2023-09-12T03:36:33;99782.69;;;11.27;100.00
36600;BME280;35385;55.668;37.508;2023-09-12T03:37:34;99777.75;;;11.23;100.00
36600;BME280;35385;55.668;37.508;2023-09-12T03:38:35;99781.38;;;11.22;100.00
36600;BME280;35385;55.668;37.508;2023-09-12T03:39:35;99755.03;;;11.17;100.00
36600;BME280;35385;55.668;37.508;2023-09-12T03:40:36;99779.75;;;11.30;100.00
36600;BME280;35385;55.668;37.508;2023-09-12T03:41:37;99780.59;;;11.31;100.00
36600;BME280;35385;55.668;37.508;2023-09-12T03:42:37;99771.63;;;11.32;100.00
36600;BME280;35385;55.668;37.508;2023-09-12T03:43:38;99775.25;;;11.31;100.00
36600;BME280;35385;55.668;37.508;2023-09-12T03:44:39;99777.47;;;11.26;100.00
36600;BME280;35385;55.668;37.508;2023-09-12T03:45:39;99788.75;;;11.29;100.00
36600;BME280;35385;55.668;37.508;2023-09-12T03:46:40;99759.75;;;11.25;100.00
36600;BME280;35385;55.668;37.508;2023-09-12T03:47:41;99784.72;;;11.35;100.00
36600;BME280;35385;55.668;37.508;2023-09-12T03:48:42;99776.97;;;11.32;100.00
36600;BME280;35385;55.668;37.508;2023-09-12T03:49:43;99784.25;;;11.30;100.00
36600;BME280;35385;55.668;37.508;2023-09-12T03:50:44;99753.69;;;11.12;100.00
36600;BME280;35385;55.668;37.508;2023-09-12T03:51:45;99795.88;;;11.40;100.00
36600;BME280;35385;55.668;37.508;2023-09-12T03:52:45;99788.44;;;11.44;100.00
36600;BME280;35385;55.668;37.508;2023-09-12T03:53:46;99790.63;;;11.50;100.00
36600;BME280;35385;55.668;37.508;2023-09-12T03:54:48;99759.22;;;11.31;100.00
36600;BME280;35385;55.668;37.508;2023-09-12T03:55:48;99785.88;;;11.53;100.00
36600;BME280;35385;55.668;37.508;2023-09-12T03:56:49;99792.63;;;11.57;100.00
36600;BME280;35385;55.668;37.508;2023-09-12T03:57:49;99778.53;;;11.55;100.00
36600;BME280;35385;55.668;37.508;2023-09-12T03:58:50;99778.28;;;11.58;100.00
36600;BME280;35385;55.668;37.508;2023-09-12T03:59:50;99771.69;;;11.62;100.00
36600;BME280;35385;55.668;37.508;2023-09-12T04:00:51;99781.16;;;11.66;100.00
36600;BME280;35385;55.668;37.508;2023-09-12T04:01:52;99782.59;;;11.70;100.00
36600;BME280;35385;55.668;37.508;2023-09-12T04:02:52;99788.66;;;11.73;100.00
36600;BME280;35385;55.668;37.508;2023-09-12T04:03:53;99792.56;;;11.80;100.00
36600;BME280;35385;55.668;37.508;2023-09-12T04:04:54;99778.94;;;11.72;100.00
36600;BME280;35385;55.668;37.508;2023-09-12T04:05:54;99772.16;;;11.67;100.00
36600;BME280;35385;55.668;37.508;2023-09-12T04:06:55;99765.38;;;11.63;100.00
36600;BME280;35385;55.668;37.508;2023-09-12T04:07:55;99775.09;;;11.64;100.00
36600;BME280;35385;55.668;37.508;2023-09-12T04:08:56;99782.88;;;11.67;100.00
36600;BME280;35385;55.668;37.508;2023-09-12T04:09:56;99785.75;;;11.76;100.00
36600;BME280;35385;55.668;37.508;2023-09-12T04:10:57;99775.53;;;11.81;100.00
36600;BME280;35385;55.668;37.508;2023-09-12T04:11:58;99783.84;;;11.87;100.00
36600;BME280;35385;55.668;37.508;2023-09-12T04:12:58;99778.06;;;11.82;100.00
36600;BME280;35385;55.668;37.508;2023-09-12T04:13:59;99783.25;;;11.84;100.00
36600;BME280;35385;55.668;37.508;2023-09-12T04:14:59;99756.53;;;11.73;100.00
36600;BME280;35385;55.668;37.508;2023-09-12T04:16:00;99791.50;;;11.92;100.00
36600;BME280;35385;55.668;37.508;2023-09-12T04:17:01;99750.84;;;11.77;100.00
36600;BME280;35385;55.668;37.508;2023-09-12T04:18:01;99784.50;;;12.00;100.00
36600;BME280;35385;55.668;37.508;2023-09-12T04:19:02;99792.72;;;12.09;100.00
36600;BME280;35385;55.668;37.508;2023-09-12T04:20:03;99800.03;;;12.07;100.00
36600;BME280;35385;55.668;37.508;2023-09-12T04:21:07;99782.13;;;12.07;100.00
36600;BME280;35385;55.668;37.508;2023-09-12T04:22:07;99769.28;;;12.01;100.00
36600;BME280;35385;55.668;37.508;2023-09-12T04:23:08;99777.38;;;12.11;100.00
36600;BME280;35385;55.668;37.508;2023-09-12T04:24:08;99789.81;;;12.21;100.00
36600;BME280;35385;55.668;37.508;2023-09-12T04:25:09;99792.94;;;12.26;100.00
36600;BME280;35385;55.668;37.508;2023-09-12T04:26:10;99758.94;;;12.17;100.00
36600;BME280;35385;55.668;37.508;2023-09-12T04:27:10;99797.66;;;12.44;100.00
36600;BME280;35385;55.668;37.508;2023-09-12T04:28:11;99781.69;;;12.32;100.00
36600;BME280;35385;55.668;37.508;2023-09-12T04:29:11;99797.09;;;12.40;100.00
36600;BME280;35385;55.668;37.508;2023-09-12T04:30:12;99785.09;;;12.44;100.00
36600;BME280;35385;55.668;37.508;2023-09-12T04:31:13;99791.78;;;12.50;100.00
36600;BME280;35385;55.668;37.508;2023-09-12T04:32:13;99774.53;;;12.43;100.00
36600;BME280;35385;55.668;37.508;2023-09-12T04:33:14;99802.50;;;12.50;100.00
36600;BME280;35385;55.668;37.508;2023-09-12T04:34:15;99789.09;;;12.50;100.00
36600;BME280;35385;55.668;37.508;2023-09-12T04:35:15;99792.91;;;12.57;100.00
36600;BME280;35385;55.668;37.508;2023-09-12T04:36:16;99773.13;;;12.38;100.00
36600;BME280;35385;55.668;37.508;2023-09-12T04:37:17;99797.41;;;12.47;100.00
36600;BME280;35385;55.668;37.508;2023-09-12T04:38:17;99756.16;;;12.28;100.00
36600;BME280;35385;55.668;37.508;2023-09-12T04:39:20;99766.88;;;12.28;100.00
36600;BME280;35385;55.668;37.508;2023-09-12T04:40:21;99802.34;;;12.51;100.00
36600;BME280;35385;55.668;37.508;2023-09-12T04:41:22;99794.00;;;12.45;100.00
36600;BME280;35385;55.668;37.508;2023-09-12T04:42:22;99791.56;;;12.42;100.00
36600;BME280;35385;55.668;37.508;2023-09-12T04:43:23;99797.66;;;12.44;100.00
36600;BME280;35385;55.668;37.508;2023-09-12T04:44:24;99794.56;;;12.38;100.00
36600;BME280;35385;55.668;37.508;2023-09-12T04:45:24;99799.91;;;12.38;100.00
36600;BME280;35385;55.668;37.508;2023-09-12T04:46:25;99754.38;;;12.08;100.00
36600;BME280;35385;55.668;37.508;2023-09-12T04:47:25;99801.28;;;12.33;100.00
36600;BME280;35385;55.668;37.508;2023-09-12T04:48:27;99802.84;;;12.35;100.00
36600;BME280;35385;55.668;37.508;2023-09-12T04:49:28;99805.53;;;12.35;100.00
36600;BME280;35385;55.668;37.508;2023-09-12T04:50:29;99798.47;;;12.34;100.00
36600;BME280;35385;55.668;37.508;2023-09-12T04:51:29;99802.97;;;12.34;100.00
36600;BME280;35385;55.668;37.508;2023-09-12T04:52:30;99781.22;;;12.27;100.00
36600;BME280;35385;55.668;37.508;2023-09-12T04:53:31;99807.94;;;12.38;100.00
36600;BME280;35385;55.668;37.508;2023-09-12T04:54:34;99801.44;;;12.41;100.00
36600;BME280;35385;55.668;37.508;2023-09-12T04:55:36;99779.00;;;12.32;100.00
36600;BME280;35385;55.668;37.508;2023-09-12T04:56:36;99771.25;;;12.29;100.00
36600;BME280;35385;55.668;37.508;2023-09-12T04:57:37;99806.28;;;12.47;100.00
36600;BME280;35385;55.668;37.508;2023-09-12T04:58:37;99794.25;;;12.42;100.00
36600;BME280;35385;55.668;37.508;2023-09-12T04:59:38;99807.00;;;12.49;100.00
36600;BME280;35385;55.668;37.508;2023-09-12T05:00:39;99806.41;;;12.46;100.00
36600;BME280;35385;55.668;37.508;2023-09-12T05:01:40;99809.09;;;12.46;100.00
36600;BME280;35385;55.668;37.508;2023-09-12T05:02:40;99803.31;;;12.41;100.00
36600;BME280;35385;55.668;37.508;2023-09-12T05:03:41;99790.56;;;12.33;100.00
36600;BME280;35385;55.668;37.508;2023-09-12T05:04:42;99804.19;;;12.51;100.00
36600;BME280;35385;55.668;37.508;2023-09-12T05:05:46;99786.69;;;12.47;100.00
36600;BME280;35385;55.668;37.508;2023-09-12T05:06:46;99794.25;;;12.42;100.00
36600;BME280;35385;55.668;37.508;2023-09-12T05:07:48;99798.97;;;12.49;100.00
36600;BME280;35385;55.668;37.508;2023-09-12T05:08:48;99812.22;;;12.51;100.00
36600;BME280;35385;55.668;37.508;2023-09-12T05:09:50;99796.28;;;12.49;100.00
36600;BME280;35385;55.668;37.508;2023-09-12T05:10:50;99778.75;;;12.35;100.00
36600;BME280;35385;55.668;37.508;2023-09-12T05:11:51;99798.69;;;12.52;100.00
36600;BME280;35385;55.668;37.508;2023-09-12T05:12:51;99777.06;;;12.44;100.00
36600;BME280;35385;55.668;37.508;2023-09-12T05:13:52;99806.03;;;12.60;100.00
36600;BME280;35385;55.668;37.508;2023-09-12T05:14:52;99777.66;;;12.48;100.00
36600;BME280;35385;55.668;37.508;2023-09-12T05:15:53;99805.63;;;12.64;100.00
36600;BME280;35385;55.668;37.508;2023-09-12T05:16:53;99799.56;;;12.62;100.00
36600;BME280;35385;55.668;37.508;2023-09-12T05:17:54;99776.41;;;12.52;100.00
36600;BME280;35385;55.668;37.508;2023-09-12T05:18:55;99805.94;;;12.71;100.00
36600;BME280;35385;55.668;37.508;2023-09-12T05:19:55;99811.03;;;12.74;100.00
36600;BME280;35385;55.668;37.508;2023-09-12T05:20:56;99807.91;;;12.69;100.00
36600;BME280;35385;55.668;37.508;2023-09-12T05:21:57;99795.78;;;12.65;100.00
36600;BME280;35385;55.668;37.508;2023-09-12T05:22:57;99807.53;;;12.83;100.00